Terminal Aerodrome Forecast
Issued by NWS

Home | Current Version | Previous Version | Text Only | Print | Product List | Glossary On
Versions: 1 2 3 4 5 6 7 8 9 10 11 12 13 14 15 16 17 18 19 20 21 22 23 24 25 26 27 28 29 30
000
FTUS45 KBOU 162340
TAFAPA
TAF
KAPA 162340Z 1700/1724 03005KT P6SM SCT120 BKN220
     FM170200 07008KT P6SM FEW080 BKN140
     FM170600 08007KT P6SM SCT006 BKN010
     FM170900 12006KT 4SM BR BKN004 OVC008 PROB30 1709/1713 1/2SM
      -FZDZ FG VV003
     FM171400 18006KT P6SM SCT008 OVC014
      TEMPO 1714/1716 BKN008=

USA.gov is the U.S. government's official web portal to all federal, state and local government web resources and services.